Station MEEM4 - Manistee Harbor, MI Image indicating link to RSS feed of recent meteorological observations for station MEEM4


Conditions at MEEM4 as of
(2:40 pm EDT)
1840 GMT on 05/28/2024:
     

Click on the graph icon in the table below to see a time series plot of the last five days of that observation.

5-day plot - Wind Direction Wind Direction (WDIR): N ( 10 deg true )
5-day plot - Wind Speed Wind Speed (WSPD): 7.0 kts
5-day plot - Wind Gust Wind Gust (GST): 7.0 kts
5-day plot - Air Temperature Air Temperature (ATMP): 58.1 °F
5-day plot - Wind Speed at 10 Meters Wind Speed at 10 meters (WSPD10M): 5.8 kts
5-day plot - Wind Speed at 20 Meters Wind Speed at 20 meters (WSPD20M): 7.8 kts
5-day plot -  Wind Speed, Wind Gust and Atmospheric Pressure Combined plot of Wind Speed, Gust, and Air Pressure
Previous observations
TIME
(EDT)
5-day plot - Wind Direction
WDIR
 
5-day plot - Wind Speed
WSPD
kts
5-day plot - Wind Gust
GST
kts
5-day plot - Wave Height
WVHT
ft
5-day plot - Dominant Wave Period
DPD
sec
5-day plot - Average Wave Period
APD
sec
5-day plot - Mean Wave Direction
MWD
 
5-day plot - Atmospheric Pressure
PRES
in
5-day plot - Pressure Tendency
PTDY
in
5-day plot - Air Temperature
ATMP
°F
5-day plot - Water Temperature
WTMP
°F
5-day plot - Dew Point
DEWP
°F
5-day plot - Salinity
SAL
psu
5-day plot - Visibility
VIS
nmi
5-day plot - Tide (above MLLW)
TIDE
ft
2024-05-28 02:30 pm N 6.0 7.0------ 57.7-----
2024-05-28 02:20 pm N 6.0 8.9------ 57.6-----
2024-05-28 02:10 pm N 7.0 8.0------ 57.6-----
2024-05-28 02:00 pm N 7.0 8.0------ 56.8-----
2024-05-28 01:50 pm N 6.0 7.0------ 56.8-----
2024-05-28 01:40 pm N 6.0 7.0------ 57.0-----
2024-05-28 01:30 pm N 6.0 7.0------ 57.4-----
2024-05-28 01:20 pm N 5.1 6.0------ 57.9-----
2024-05-28 01:10 pm NW 5.1 6.0------ 57.4-----
2024-05-28 01:00 pmWNW 5.1 7.0------ 56.5-----
2024-05-28 12:50 pm W 6.0 7.0------ 56.5-----
2024-05-28 12:40 pm W 5.1 6.0------ 56.5-----
2024-05-28 12:30 pm W 5.1 6.0------ 56.7-----
2024-05-28 12:20 pm W 4.1 6.0------ 57.0-----
2024-05-28 12:10 pm W 5.1 7.0------ 56.7-----
2024-05-28 12:00 pm W 6.0 7.0------ 57.0-----
2024-05-28 11:50 amWSW 6.0 6.0------ 56.7-----
2024-05-28 11:40 amWSW 5.1 6.0------ 57.0-----
2024-05-28 11:30 amWSW 5.1 6.0------ 56.7-----
2024-05-28 11:20 amWSW 4.1 5.1------ 57.0-----
2024-05-28 11:10 amWSW 4.1 6.0------ 56.3-----
2024-05-28 11:00 amWSW 5.1 7.0------ 56.5-----
2024-05-28 10:50 amWSW 6.0 8.0------ 56.7-----
2024-05-28 10:40 amWSW 8.0 8.9------ 57.4-----
2024-05-28 10:30 amWSW 8.0 8.9------ 57.2-----
2024-05-28 10:20 am SW 8.9 11.1------ 55.8-----
2024-05-28 10:10 amWSW 9.9 12.0------ 56.3-----
2024-05-28 10:00 amWSW 11.1 12.0------ 56.7-----
2024-05-28 09:50 am SW 9.9 12.0------ 56.7-----
2024-05-28 09:40 amWSW 8.9 9.9------ 57.6-----
2024-05-28 09:30 am SW 8.0 8.9------ 57.6-----
2024-05-28 09:20 am SW 7.0 8.0------ 57.4-----
2024-05-28 09:10 am SW 6.0 7.0------ 57.9-----
2024-05-28 09:00 am SW 6.0 7.0------ 58.5-----
2024-05-28 08:50 am SW 5.1 8.0------ 58.1-----
2024-05-28 08:40 am SW 6.0 8.0------ 58.3-----
2024-05-28 08:30 am SW 7.0 8.0------ 57.6-----
2024-05-28 08:20 am SW 6.0 7.0------ 57.6-----
2024-05-28 08:10 am SW 6.0 7.0------ 57.2-----
2024-05-28 08:00 am SW 6.0 8.0------ 57.0-----
2024-05-28 07:50 amWSW 5.1 8.0------ 57.0-----
2024-05-28 07:40 amWSW 6.0 7.0------ 56.7-----
2024-05-28 07:30 am SW 5.1 7.0------ 56.3-----
2024-05-28 07:20 am SW 6.0 7.0------ 55.8-----
2024-05-28 07:10 amWSW 7.0 8.9------ 55.8-----
2024-05-28 07:00 amWSW 6.0 8.9------ 55.6-----
2024-05-28 06:50 amWSW 7.0 8.9------ 55.2-----
2024-05-28 06:40 am SW 5.1 8.9------ 55.0-----
2024-05-28 06:30 am SW 7.0 8.9------ 54.7-----
2024-05-28 06:20 am SW 8.9 11.1------ 54.7-----
2024-05-28 06:10 amSSW 8.0 11.1------ 54.9-----
2024-05-28 06:00 amWSW 8.0 9.9------ 55.0-----
2024-05-28 05:50 amWSW 8.0 8.9------ 55.0-----
2024-05-28 05:40 amWSW 7.0 9.9------ 55.2-----
2024-05-28 05:30 amWSW 8.0 9.9------ 55.4-----
2024-05-28 05:20 amWSW 8.0 11.1------ 55.8-----
2024-05-28 05:10 amWSW 8.9 11.1------ 56.1-----
2024-05-28 05:00 amWSW 8.0 9.9------ 56.3-----
2024-05-28 04:50 amWSW 8.0 9.9------ 56.5-----
2024-05-28 04:40 amWSW 7.0 8.9------ 56.7-----
2024-05-28 04:30 am SW 7.0 8.9------ 56.5-----
2024-05-28 04:20 am SW 7.0 8.9------ 56.7-----
2024-05-28 04:10 amWSW 8.0 8.9------ 56.7-----
2024-05-28 04:00 am SW 8.0 8.9------ 56.7-----
2024-05-28 03:50 am SW 8.0 8.9------ 56.7-----
2024-05-28 03:40 am SW 7.0 9.9------ 56.5-----
2024-05-28 03:30 am SW 8.9 12.0------ 56.3-----
2024-05-28 03:20 am SW 9.9 12.0------ 56.7-----
2024-05-28 03:10 am SW 9.9 12.0------ 56.7-----
2024-05-28 03:00 am SW 8.0 9.9------ 56.7-----
2024-05-28 02:50 amSSW 8.0 9.9------ 56.5-----
2024-05-28 02:40 amSSW 6.0 8.0------ 56.5-----
2024-05-28 02:30 am SW 8.0 8.0------ 56.3-----
2024-05-28 02:20 amSSW 4.1 6.0------ 55.8-----
2024-05-28 02:10 am S 4.1 6.0------ 55.4-----
2024-05-28 02:00 am S 2.9 7.0------ 55.2-----
2024-05-28 01:50 amSSW 5.1 8.0------ 55.0-----
2024-05-28 01:40 amSSW 6.0 8.0------ 55.0-----
2024-05-28 01:30 am SW 6.0 8.0------ 55.2-----
2024-05-28 01:20 amWSW 6.0 7.0------ 55.4-----
2024-05-28 01:10 am SW 7.0 7.0------ 55.4-----
2024-05-28 01:00 am SW 6.0 6.0------ 55.2-----
2024-05-28 12:50 am SW 7.0 8.0------ 55.4-----
2024-05-28 12:40 am SW 6.0 8.0------ 55.4-----
2024-05-28 12:30 am SW 4.1 7.0------ 55.0-----
2024-05-28 12:20 am S 4.1 7.0------ 54.3-----
2024-05-28 12:10 am S 1.0 6.0------ 54.5-----
2024-05-28 12:00 amWSW 6.0 8.9------ 54.7-----
2024-05-27 11:50 pmWSW 8.9 11.1------ 54.5-----
2024-05-27 11:40 pmWSW 7.0 12.0------ 54.5-----
2024-05-27 11:30 pm W 1.9 4.1------ 55.4-----
2024-05-27 11:20 pmWNW 4.1 5.1------ 55.6-----
2024-05-27 11:10 pmNNE 1.0 4.1------ 55.2-----
2024-05-27 11:00 pm N 2.9 6.0------ 55.2-----
2024-05-27 10:50 pmNNW 5.1 7.0------ 54.9-----
2024-05-27 10:40 pmNNW 7.0 8.0------ 54.9-----
2024-05-27 10:30 pmNNW 6.0 8.0------ 54.9-----
2024-05-27 10:20 pm NW 7.0 8.0------ 54.5-----
2024-05-27 10:10 pm NW 7.0 8.0------ 54.7-----
2024-05-27 10:00 pmNNW 8.0 8.9------ 54.9-----
2024-05-27 09:50 pmNNW 8.0 8.9------ 55.0-----
2024-05-27 09:40 pmNNW 7.0 8.0------ 54.9-----
2024-05-27 09:30 pmNNW 6.0 7.0------ 54.9-----
2024-05-27 09:20 pmNNW 6.0 8.9------ 55.0-----
2024-05-27 09:10 pmNNW 7.0 8.0------ 55.2-----
2024-05-27 09:00 pmNNW 7.0 8.9------ 55.2-----
2024-05-27 08:50 pm N 7.0 8.9------ 55.4-----
2024-05-27 08:40 pm N 7.0 9.9------ 55.4-----
2024-05-27 08:30 pm N 8.9 9.9------ 55.2-----
2024-05-27 08:20 pm N 7.0 8.9------ 55.6-----
2024-05-27 08:10 pm N 7.0 8.9------ 55.6-----
2024-05-27 08:00 pm N 8.9 11.1------ 55.6-----
2024-05-27 07:50 pm N 8.0 9.9------ 55.9-----
2024-05-27 07:40 pm N 9.9 11.1------ 55.4-----
2024-05-27 07:30 pm N 9.9 11.1------ 55.2-----
2024-05-27 07:20 pm N 8.9 12.0------ 55.0-----
2024-05-27 07:10 pm N 8.9 12.0------ 55.2-----
2024-05-27 07:00 pm N 8.9 12.0------ 54.9-----
2024-05-27 06:50 pmNNW 8.9 11.1------ 54.7-----
2024-05-27 06:40 pmNNW 9.9 15.0------ 54.7-----
2024-05-27 06:30 pmNNW 12.0 13.0------ 54.9-----
2024-05-27 06:20 pmNNW 12.0 15.0------ 54.7-----
2024-05-27 06:10 pmNNW 13.0 15.9------ 55.2-----
2024-05-27 06:00 pm N 13.0 15.9------ 56.3-----
2024-05-27 05:50 pm N 14.0 17.1------ 56.3-----
2024-05-27 05:40 pm N 15.9 20.0------ 55.8-----
2024-05-27 05:30 pm N 15.0 21.0------ 55.6-----
2024-05-27 05:20 pm N 18.1 20.0------ 56.1-----
2024-05-27 05:10 pm N 18.1 24.1------ 56.1-----
2024-05-27 05:00 pm N 21.0 26.0------ 56.5-----
2024-05-27 04:50 pm N 20.0 24.1------ 56.3-----
2024-05-27 04:40 pm N 19.0 22.0------ 55.4-----
2024-05-27 04:30 pm N 17.1 21.0------ 54.9-----
2024-05-27 04:20 pm N 15.0 18.1------ 54.3-----
2024-05-27 04:10 pm N 15.0 18.1------ 54.1-----
2024-05-27 04:00 pmNNW 15.9 20.0------ 54.5-----
2024-05-27 03:50 pmNNW 17.1 20.0------ 54.3-----
2024-05-27 03:40 pmNNW 15.9 20.0------ 54.1-----
2024-05-27 03:30 pmNNW 17.1 22.0------ 54.3-----
2024-05-27 03:20 pmNNW 18.1 21.0------ 54.9-----
2024-05-27 03:10 pm N 18.1 21.0------ 54.7-----
2024-05-27 03:00 pm N 17.1 22.0------ 55.4-----
2024-05-27 02:50 pm N 21.0 24.1------ 55.6-----